Station Historical Data
Daily Summary for April 29, 2017 Units:  Both    English   Metric
« Previous Day
Next Day »
Daily Weekly Monthly Yearly Custom
  High: Low: Average:
Temperature: 62.0 °F /  16.7 °C 44.5 °F /  6.9 °C 53.7 °F /  12.1 °C
Dew Point: 51.8 °F /  11 °C 33.2 °F /  0.7 °C 43.8 °F /  6.6 °C
Humidity: 85% 59% 70%
Wind Speed: 11.0mph /  17.7km/h - 2.4mph /  3.9km/h
Wind Gust: 14.0mph /  22.5km/h - -
Wind- - WSW
Pressure: 30.26 in /  1024.6 hPa 29.95 in /  1014.1 hPa -
Precipitation: 0.00 in /  0 mm    
Historical Graphs
 
 
Tabular Data for April 29, 2017
Time Temperature Dew Point Pressure Wind Wind Speed Wind Gust Humidity Rainfall Rate (Hourly)
00:00 56.3 °F /  13.5 °C 47.4 °F /  8.6 °C 29.98in /  1015.1hPa Calm     72% 0.00in /  0mm
00:05 56.4 °F /  13.6 °C 47.5 °F /  8.6 °C 29.98in /  1015.1hPa Calm   2.0mph /  3.2km/h 72% 0.00in /  0mm
00:10 56.7 °F /  13.7 °C 47.8 °F /  8.8 °C 29.98in /  1015.1hPa Calm   3.0mph /  4.8km/h 72% 0.00in /  0mm
00:15 57.3 °F /  14.1 °C 48.0 °F /  8.9 °C 29.98in /  1015.1hPa SSW 1.0mph /  1.6km/h 3.0mph /  4.8km/h 71% 0.00in /  0mm
00:20 57.8 °F /  14.3 °C 48.1 °F /  8.9 °C 29.97in /  1014.8hPa SSW 1.0mph /  1.6km/h 3.0mph /  4.8km/h 70% 0.00in /  0mm
00:25 58.7 °F /  14.8 °C 48.6 °F /  9.2 °C 29.97in /  1014.8hPa SSW 2.0mph /  3.2km/h 3.0mph /  4.8km/h 69% 0.00in /  0mm
00:30 59.5 °F /  15.3 °C 48.5 °F /  9.2 °C 29.97in /  1014.8hPa SSW 4.0mph /  6.4km/h 4.0mph /  6.4km/h 67% 0.00in /  0mm
00:35 60.1 °F /  15.6 °C 48.3 °F /  9.1 °C 29.97in /  1014.8hPa SSW 2.0mph /  3.2km/h 5.0mph /  8km/h 65% 0.00in /  0mm
00:40 60.3 °F /  15.7 °C 48.1 °F /  8.9 °C 29.97in /  1014.8hPa SSW 3.0mph /  4.8km/h 6.0mph /  9.7km/h 64% 0.00in /  0mm
00:45 60.9 °F /  16.1 °C 48.2 °F /  9 °C 29.98in /  1015.1hPa South 3.0mph /  4.8km/h 7.0mph /  11.3km/h 63% 0.00in /  0mm
00:50 61.3 °F /  16.3 °C 48.2 °F /  9 °C 29.98in /  1015.1hPa SSW 3.0mph /  4.8km/h 6.0mph /  9.7km/h 62% 0.00in /  0mm
00:55 61.6 °F /  16.4 °C 48.4 °F /  9.1 °C 29.98in /  1015.1hPa South 4.0mph /  6.4km/h 7.0mph /  11.3km/h 62% 0.00in /  0mm
01:00 61.5 °F /  16.4 °C 48.4 °F /  9.1 °C 29.98in /  1015.1hPa SSW 3.0mph /  4.8km/h 9.0mph /  14.5km/h 62% 0.00in /  0mm
01:05 61.4 °F /  16.3 °C 48.3 °F /  9.1 °C 29.98in /  1015.1hPa SSW 3.0mph /  4.8km/h 9.0mph /  14.5km/h 62% 0.00in /  0mm
01:10 61.3 °F /  16.3 °C 48.2 °F /  9 °C 29.98in /  1015.1hPa SSW 3.0mph /  4.8km/h 6.0mph /  9.7km/h 62% 0.00in /  0mm
01:15 61.4 °F /  16.3 °C 48.3 °F /  9.1 °C 29.98in /  1015.1hPa SSW 3.0mph /  4.8km/h 6.0mph /  9.7km/h 62% 0.00in /  0mm
01:20 61.3 °F /  16.3 °C 48.2 °F /  9 °C 29.98in /  1015.1hPa SSW 2.0mph /  3.2km/h 5.0mph /  8km/h 62% 0.00in /  0mm
01:25 61.1 °F /  16.2 °C 48.4 °F /  9.1 °C 29.97in /  1014.8hPa SSW 3.0mph /  4.8km/h 5.0mph /  8km/h 63% 0.00in /  0mm
01:30 61.1 °F /  16.2 °C 48.4 °F /  9.1 °C 29.97in /  1014.8hPa SSW 3.0mph /  4.8km/h 3.0mph /  4.8km/h 63% 0.00in /  0mm
01:35 60.9 °F /  16.1 °C 48.2 °F /  9 °C 29.97in /  1014.8hPa SSW 2.0mph /  3.2km/h 5.0mph /  8km/h 63% 0.00in /  0mm
01:40 60.8 °F /  16 °C 48.1 °F /  8.9 °C 29.98in /  1015.1hPa SSW 2.0mph /  3.2km/h 4.0mph /  6.4km/h 63% 0.00in /  0mm
01:45 60.8 °F /  16 °C 48.5 °F /  9.2 °C 29.98in /  1015.1hPa SSW 1.0mph /  1.6km/h 4.0mph /  6.4km/h 64% 0.00in /  0mm
01:50 60.7 °F /  15.9 °C 48.4 °F /  9.1 °C 29.98in /  1015.1hPa SW 3.0mph /  4.8km/h 7.0mph /  11.3km/h 64% 0.00in /  0mm
01:55 60.9 °F /  16.1 °C 48.2 °F /  9 °C 29.97in /  1014.8hPa SSW 2.0mph /  3.2km/h 6.0mph /  9.7km/h 63% 0.00in /  0mm
02:00 61.3 °F /  16.3 °C 48.6 °F /  9.2 °C 29.96in /  1014.4hPa SSW 3.0mph /  4.8km/h 7.0mph /  11.3km/h 63% 0.00in /  0mm
02:05 61.6 °F /  16.4 °C 48.4 °F /  9.1 °C 29.96in /  1014.4hPa SSW 3.0mph /  4.8km/h 7.0mph /  11.3km/h 62% 0.00in /  0mm
02:10 61.9 °F /  16.6 °C 48.7 °F /  9.3 °C 29.95in /  1014.1hPa SSW 3.0mph /  4.8km/h 8.0mph /  12.9km/h 62% 0.00in /  0mm
02:15 61.9 °F /  16.6 °C 48.7 °F /  9.3 °C 29.95in /  1014.1hPa SSW 3.0mph /  4.8km/h 8.0mph /  12.9km/h 62% 0.00in /  0mm
02:20 62.0 °F /  16.7 °C 48.8 °F /  9.3 °C 29.96in /  1014.4hPa SSW 3.0mph /  4.8km/h 7.0mph /  11.3km/h 62% 0.00in /  0mm
02:25 61.8 °F /  16.6 °C 48.6 °F /  9.2 °C 29.96in /  1014.4hPa SW 4.0mph /  6.4km/h 7.0mph /  11.3km/h 62% 0.00in /  0mm
02:30 61.8 °F /  16.6 °C 49.1 °F /  9.5 °C 29.96in /  1014.4hPa SSW 2.0mph /  3.2km/h 10.0mph /  16.1km/h 63% 0.00in /  0mm
02:35 61.7 °F /  16.5 °C 49.8 °F /  9.9 °C 29.96in /  1014.4hPa South 9.0mph /  14.5km/h 14.0mph /  22.5km/h 65% 0.00in /  0mm
02:40 61.4 °F /  16.3 °C 50.3 °F /  10.2 °C 29.97in /  1014.8hPa SW 2.0mph /  3.2km/h 14.0mph /  22.5km/h 67% 0.00in /  0mm
02:45 61.0 °F /  16.1 °C 51.1 °F /  10.6 °C 29.97in /  1014.8hPa WSW 11.0mph /  17.7km/h 12.0mph /  19.3km/h 70% 0.00in /  0mm
02:50 60.7 °F /  15.9 °C 51.2 °F /  10.7 °C 29.97in /  1014.8hPa WSW 6.0mph /  9.7km/h 11.0mph /  17.7km/h 71% 0.00in /  0mm
02:55 60.4 °F /  15.8 °C 51.7 °F /  10.9 °C 29.96in /  1014.4hPa SW 5.0mph /  8km/h 11.0mph /  17.7km/h 73% 0.00in /  0mm
03:00 60.1 °F /  15.6 °C 51.8 °F /  11 °C 29.96in /  1014.4hPa SW 5.0mph /  8km/h 11.0mph /  17.7km/h 74% 0.00in /  0mm
03:05 59.9 °F /  15.5 °C 51.6 °F /  10.9 °C 29.96in /  1014.4hPa SW 6.0mph /  9.7km/h 11.0mph /  17.7km/h 74% 0.00in /  0mm
03:10 59.8 °F /  15.4 °C 51.5 °F /  10.8 °C 29.96in /  1014.4hPa SW 5.0mph /  8km/h 11.0mph /  17.7km/h 74% 0.00in /  0mm
03:15 59.7 °F /  15.4 °C 51.4 °F /  10.8 °C 29.96in /  1014.4hPa WSW 8.0mph /  12.9km/h 11.0mph /  17.7km/h 74% 0.00in /  0mm
03:20 59.6 °F /  15.3 °C 51.3 °F /  10.7 °C 29.96in /  1014.4hPa WSW 4.0mph /  6.4km/h 11.0mph /  17.7km/h 74% 0.00in /  0mm
03:25 59.7 °F /  15.4 °C 51.0 °F /  10.6 °C 29.96in /  1014.4hPa WSW 5.0mph /  8km/h 11.0mph /  17.7km/h 73% 0.00in /  0mm
03:30 59.7 °F /  15.4 °C 51.0 °F /  10.6 °C 29.96in /  1014.4hPa WSW 4.0mph /  6.4km/h 8.0mph /  12.9km/h 73% 0.00in /  0mm
03:35 59.7 °F /  15.4 °C 50.7 °F /  10.4 °C 29.96in /  1014.4hPa WSW 4.0mph /  6.4km/h 11.0mph /  17.7km/h 72% 0.00in /  0mm
03:40 59.6 °F /  15.3 °C 50.2 °F /  10.1 °C 29.97in /  1014.8hPa West 7.0mph /  11.3km/h 8.0mph /  12.9km/h 71% 0.00in /  0mm
03:45 59.4 °F /  15.2 °C 50.0 °F /  10 °C 29.97in /  1014.8hPa WSW 4.0mph /  6.4km/h 9.0mph /  14.5km/h 71% 0.00in /  0mm
03:50 59.2 °F /  15.1 °C 50.2 °F /  10.1 °C 29.97in /  1014.8hPa SW 3.0mph /  4.8km/h 9.0mph /  14.5km/h 72% 0.00in /  0mm
03:55 59.1 °F /  15.1 °C 49.7 °F /  9.8 °C 29.97in /  1014.8hPa WSW 4.0mph /  6.4km/h 9.0mph /  14.5km/h 71% 0.00in /  0mm
04:00 58.9 °F /  14.9 °C 49.5 °F /  9.7 °C 29.97in /  1014.8hPa WSW 4.0mph /  6.4km/h 9.0mph /  14.5km/h 71% 0.00in /  0mm
04:05 58.9 °F /  14.9 °C 49.5 °F /  9.7 °C 29.97in /  1014.8hPa SW 3.0mph /  4.8km/h 10.0mph /  16.1km/h 71% 0.00in /  0mm
04:10 58.9 °F /  14.9 °C 49.9 °F /  9.9 °C 29.97in /  1014.8hPa WSW 9.0mph /  14.5km/h 9.0mph /  14.5km/h 72% 0.00in /  0mm
04:15 58.9 °F /  14.9 °C 49.9 °F /  9.9 °C 29.98in /  1015.1hPa WSW 4.0mph /  6.4km/h 10.0mph /  16.1km/h 72% 0.00in /  0mm
04:20 59.0 °F /  15 °C 50.4 °F /  10.2 °C 29.98in /  1015.1hPa SW 5.0mph /  8km/h 9.0mph /  14.5km/h 73% 0.00in /  0mm
04:25 59.0 °F /  15 °C 50.4 °F /  10.2 °C 29.98in /  1015.1hPa WSW 5.0mph /  8km/h 14.0mph /  22.5km/h 73% 0.00in /  0mm
04:30 58.9 °F /  14.9 °C 50.6 °F /  10.3 °C 29.98in /  1015.1hPa WSW 6.0mph /  9.7km/h 14.0mph /  22.5km/h 74% 0.00in /  0mm
04:35 58.9 °F /  14.9 °C 50.6 °F /  10.3 °C 29.99in /  1015.5hPa WSW 5.0mph /  8km/h 14.0mph /  22.5km/h 74% 0.00in /  0mm
04:40 58.7 °F /  14.8 °C 50.8 °F /  10.4 °C 29.99in /  1015.5hPa WSW 5.0mph /  8km/h 9.0mph /  14.5km/h 75% 0.00in /  0mm
04:45 58.6 °F /  14.8 °C 51.1 °F /  10.6 °C 29.99in /  1015.5hPa WSW 6.0mph /  9.7km/h 8.0mph /  12.9km/h 76% 0.00in /  0mm
04:50 58.3 °F /  14.6 °C 50.8 °F /  10.4 °C 29.99in /  1015.5hPa WSW 5.0mph /  8km/h 9.0mph /  14.5km/h 76% 0.00in /  0mm
04:55 58.2 °F /  14.6 °C 50.7 °F /  10.4 °C 29.99in /  1015.5hPa West 2.0mph /  3.2km/h 9.0mph /  14.5km/h 76% 0.00in /  0mm
05:00 58.1 °F /  14.5 °C 50.9 °F /  10.5 °C 29.98in /  1015.1hPa WSW 1.0mph /  1.6km/h 7.0mph /  11.3km/h 77% 0.00in /  0mm
05:05 58.0 °F /  14.4 °C 50.8 °F /  10.4 °C 29.98in /  1015.1hPa SW 5.0mph /  8km/h 8.0mph /  12.9km/h 77% 0.00in /  0mm
05:10 57.8 °F /  14.3 °C 51.0 °F /  10.6 °C 29.98in /  1015.1hPa WSW 3.0mph /  4.8km/h 10.0mph /  16.1km/h 78% 0.00in /  0mm
05:15 57.5 °F /  14.2 °C 51.0 °F /  10.6 °C 29.98in /  1015.1hPa WSW 4.0mph /  6.4km/h 8.0mph /  12.9km/h 79% 0.00in /  0mm
05:20 57.2 °F /  14 °C 51.1 °F /  10.6 °C 29.98in /  1015.1hPa WSW 4.0mph /  6.4km/h 8.0mph /  12.9km/h 80% 0.00in /  0mm
05:25 56.9 °F /  13.8 °C 51.1 °F /  10.6 °C 29.98in /  1015.1hPa WSW 4.0mph /  6.4km/h 7.0mph /  11.3km/h 81% 0.00in /  0mm
05:30 56.7 °F /  13.7 °C 50.9 °F /  10.5 °C 29.98in /  1015.1hPa SSW 3.0mph /  4.8km/h 7.0mph /  11.3km/h 81% 0.00in /  0mm
05:35 56.2 °F /  13.4 °C 50.4 °F /  10.2 °C 29.98in /  1015.1hPa SSW 3.0mph /  4.8km/h 9.0mph /  14.5km/h 81% 0.00in /  0mm
05:40 55.7 °F /  13.2 °C 50.3 °F /  10.2 °C 29.98in /  1015.1hPa SW 2.0mph /  3.2km/h 8.0mph /  12.9km/h 82% 0.00in /  0mm
05:45 55.4 °F /  13 °C 50.0 °F /  10 °C 29.98in /  1015.1hPa WSW 3.0mph /  4.8km/h 8.0mph /  12.9km/h 82% 0.00in /  0mm
05:50 55.2 °F /  12.9 °C 49.8 °F /  9.9 °C 29.99in /  1015.5hPa SW 4.0mph /  6.4km/h 9.0mph /  14.5km/h 82% 0.00in /  0mm
05:55 54.9 °F /  12.7 °C 49.8 °F /  9.9 °C 29.99in /  1015.5hPa SW 4.0mph /  6.4km/h 9.0mph /  14.5km/h 83% 0.00in /  0mm
06:00 54.6 °F /  12.6 °C 49.5 °F /  9.7 °C 29.99in /  1015.5hPa SW 3.0mph /  4.8km/h 5.0mph /  8km/h 83% 0.00in /  0mm
06:05 54.4 °F /  12.4 °C 49.3 °F /  9.6 °C 29.99in /  1015.5hPa WSW 3.0mph /  4.8km/h 6.0mph /  9.7km/h 83% 0.00in /  0mm
06:10 54.3 °F /  12.4 °C 49.2 °F /  9.6 °C 29.99in /  1015.5hPa SW 1.0mph /  1.6km/h 6.0mph /  9.7km/h 83% 0.00in /  0mm
06:15 54.1 °F /  12.3 °C 49.4 °F /  9.7 °C 29.99in /  1015.5hPa SW 2.0mph /  3.2km/h 6.0mph /  9.7km/h 84% 0.00in /  0mm
06:20 54.1 °F /  12.3 °C 49.4 °F /  9.7 °C 30.00in /  1015.8hPa SW 2.0mph /  3.2km/h 7.0mph /  11.3km/h 84% 0.00in /  0mm
06:25 53.9 °F /  12.2 °C 49.2 °F /  9.6 °C 30.00in /  1015.8hPa SW 2.0mph /  3.2km/h 5.0mph /  8km/h 84% 0.00in /  0mm
06:30 53.8 °F /  12.1 °C 49.1 °F /  9.5 °C 30.01in /  1016.1hPa WSW 3.0mph /  4.8km/h 5.0mph /  8km/h 84% 0.00in /  0mm
06:35 53.7 °F /  12.1 °C 49.0 °F /  9.4 °C 30.01in /  1016.1hPa Calm   5.0mph /  8km/h 84% 0.00in /  0mm
06:40 53.7 °F /  12.1 °C 49.0 °F /  9.4 °C 30.01in /  1016.1hPa SW 2.0mph /  3.2km/h 6.0mph /  9.7km/h 84% 0.00in /  0mm
06:45 53.6 °F /  12 °C 49.2 °F /  9.6 °C 30.02in /  1016.5hPa SW 2.0mph /  3.2km/h 6.0mph /  9.7km/h 85% 0.00in /  0mm
06:50 53.4 °F /  11.9 °C 49.0 °F /  9.4 °C 30.02in /  1016.5hPa SW 2.0mph /  3.2km/h 5.0mph /  8km/h 85% 0.00in /  0mm
06:55 53.3 °F /  11.8 °C 48.9 °F /  9.4 °C 30.02in /  1016.5hPa SW 2.0mph /  3.2km/h 6.0mph /  9.7km/h 85% 0.00in /  0mm
07:00 53.2 °F /  11.8 °C 48.8 °F /  9.3 °C 30.02in /  1016.5hPa WSW 3.0mph /  4.8km/h 6.0mph /  9.7km/h 85% 0.00in /  0mm
07:05 53.1 °F /  11.7 °C 48.7 °F /  9.3 °C 30.02in /  1016.5hPa WSW 3.0mph /  4.8km/h 8.0mph /  12.9km/h 85% 0.00in /  0mm
07:10 53.2 °F /  11.8 °C 48.8 °F /  9.3 °C 30.02in /  1016.5hPa WSW 3.0mph /  4.8km/h 7.0mph /  11.3km/h 85% 0.00in /  0mm
07:15 53.0 °F /  11.7 °C 48.6 °F /  9.2 °C 30.03in /  1016.8hPa SW 3.0mph /  4.8km/h 7.0mph /  11.3km/h 85% 0.00in /  0mm
07:20 52.9 °F /  11.6 °C 48.5 °F /  9.2 °C 30.02in /  1016.5hPa WSW 3.0mph /  4.8km/h 6.0mph /  9.7km/h 85% 0.00in /  0mm
07:25 52.9 °F /  11.6 °C 48.5 °F /  9.2 °C 30.03in /  1016.8hPa Calm   6.0mph /  9.7km/h 85% 0.00in /  0mm
07:30 53.0 °F /  11.7 °C 48.6 °F /  9.2 °C 30.03in /  1016.8hPa SW 2.0mph /  3.2km/h 5.0mph /  8km/h 85% 0.00in /  0mm
07:35 53.0 °F /  11.7 °C 48.6 °F /  9.2 °C 30.03in /  1016.8hPa SW 1.0mph /  1.6km/h 5.0mph /  8km/h 85% 0.00in /  0mm
07:40 53.1 °F /  11.7 °C 48.7 °F /  9.3 °C 30.03in /  1016.8hPa SW 2.0mph /  3.2km/h 5.0mph /  8km/h 85% 0.00in /  0mm
07:45 53.2 °F /  11.8 °C 48.8 °F /  9.3 °C 30.03in /  1016.8hPa SW 2.0mph /  3.2km/h 4.0mph /  6.4km/h 85% 0.00in /  0mm
07:50 53.2 °F /  11.8 °C 48.8 °F /  9.3 °C 30.04in /  1017.2hPa SW 2.0mph /  3.2km/h 4.0mph /  6.4km/h 85% 0.00in /  0mm
07:55 53.3 °F /  11.8 °C 48.9 °F /  9.4 °C 30.04in /  1017.2hPa SW 2.0mph /  3.2km/h 3.0mph /  4.8km/h 85% 0.00in /  0mm
08:00 53.3 °F /  11.8 °C 48.9 °F /  9.4 °C 30.05in /  1017.5hPa SW 4.0mph /  6.4km/h 5.0mph /  8km/h 85% 0.00in /  0mm
08:05 53.3 °F /  11.8 °C 48.9 °F /  9.4 °C 30.05in /  1017.5hPa Calm   6.0mph /  9.7km/h 85% 0.00in /  0mm
08:10 53.5 °F /  11.9 °C 49.1 °F /  9.5 °C 30.05in /  1017.5hPa SW 1.0mph /  1.6km/h 6.0mph /  9.7km/h 85% 0.00in /  0mm
08:15 53.7 °F /  12.1 °C 49.3 °F /  9.6 °C 30.05in /  1017.5hPa SW 1.0mph /  1.6km/h 3.0mph /  4.8km/h 85% 0.00in /  0mm
08:20 53.8 °F /  12.1 °C 49.4 °F /  9.7 °C 30.05in /  1017.5hPa Calm   3.0mph /  4.8km/h 85% 0.00in /  0mm
08:25 53.9 °F /  12.2 °C 49.5 °F /  9.7 °C 30.05in /  1017.5hPa Calm   2.0mph /  3.2km/h 85% 0.00in /  0mm
08:30 54.1 °F /  12.3 °C 49.7 °F /  9.8 °C 30.06in /  1017.8hPa SSW 1.0mph /  1.6km/h 1.0mph /  1.6km/h 85% 0.00in /  0mm
08:35 54.0 °F /  12.2 °C 48.3 °F /  9.1 °C 30.06in /  1017.8hPa NW 1.0mph /  1.6km/h 7.0mph /  11.3km/h 81% 0.00in /  0mm
08:40 52.4 °F /  11.3 °C 45.1 °F /  7.3 °C 30.07in /  1018.2hPa NNW 3.0mph /  4.8km/h 8.0mph /  12.9km/h 76% 0.00in /  0mm
08:45 51.7 °F /  10.9 °C 44.4 °F /  6.9 °C 30.08in /  1018.5hPa North 3.0mph /  4.8km/h 8.0mph /  12.9km/h 76% 0.00in /  0mm
08:50 51.4 °F /  10.8 °C 44.1 °F /  6.7 °C 30.08in /  1018.5hPa North 4.0mph /  6.4km/h 8.0mph /  12.9km/h 76% 0.00in /  0mm
08:55 50.8 °F /  10.4 °C 43.2 °F /  6.2 °C 30.09in /  1018.8hPa NNW 2.0mph /  3.2km/h 9.0mph /  14.5km/h 75% 0.00in /  0mm
09:00 50.5 °F /  10.3 °C 42.9 °F /  6.1 °C 30.09in /  1018.8hPa North 3.0mph /  4.8km/h 7.0mph /  11.3km/h 75% 0.00in /  0mm
09:05 50.5 °F /  10.3 °C 42.9 °F /  6.1 °C 30.09in /  1018.8hPa North 3.0mph /  4.8km/h 7.0mph /  11.3km/h 75% 0.00in /  0mm
09:10 50.4 °F /  10.2 °C 42.8 °F /  6 °C 30.09in /  1018.8hPa North 2.0mph /  3.2km/h 6.0mph /  9.7km/h 75% 0.00in /  0mm
09:15 50.7 °F /  10.4 °C 43.1 °F /  6.2 °C 30.10in /  1019.2hPa North 3.0mph /  4.8km/h 6.0mph /  9.7km/h 75% 0.00in /  0mm
09:20 50.8 °F /  10.4 °C 43.2 °F /  6.2 °C 30.10in /  1019.2hPa NNW 3.0mph /  4.8km/h 6.0mph /  9.7km/h 75% 0.00in /  0mm
09:25 50.7 °F /  10.4 °C 42.7 °F /  5.9 °C 30.10in /  1019.2hPa NNW 5.0mph /  8km/h 6.0mph /  9.7km/h 74% 0.00in /  0mm
09:30 50.6 °F /  10.3 °C 42.3 °F /  5.7 °C 30.10in /  1019.2hPa NNW 3.0mph /  4.8km/h 6.0mph /  9.7km/h 73% 0.00in /  0mm
09:35 50.6 °F /  10.3 °C 41.9 °F /  5.5 °C 30.10in /  1019.2hPa NNW 3.0mph /  4.8km/h 6.0mph /  9.7km/h 72% 0.00in /  0mm
09:40 50.2 °F /  10.1 °C 41.5 °F /  5.3 °C 30.10in /  1019.2hPa NW 4.0mph /  6.4km/h 10.0mph /  16.1km/h 72% 0.00in /  0mm
09:45 50.3 °F /  10.2 °C 41.6 °F /  5.3 °C 30.09in /  1018.8hPa NNE 3.0mph /  4.8km/h 9.0mph /  14.5km/h 72% 0.00in /  0mm
09:50 50.7 °F /  10.4 °C 41.6 °F /  5.3 °C 30.10in /  1019.2hPa North 1.0mph /  1.6km/h 8.0mph /  12.9km/h 71% 0.00in /  0mm
09:55 50.7 °F /  10.4 °C 41.6 °F /  5.3 °C 30.10in /  1019.2hPa NNW 4.0mph /  6.4km/h 9.0mph /  14.5km/h 71% 0.00in /  0mm
10:00 50.6 °F /  10.3 °C 41.2 °F /  5.1 °C 30.11in /  1019.5hPa NNW 3.0mph /  4.8km/h 7.0mph /  11.3km/h 70% 0.00in /  0mm
10:05 50.8 °F /  10.4 °C 41.7 °F /  5.4 °C 30.11in /  1019.5hPa NNW 3.0mph /  4.8km/h 7.0mph /  11.3km/h 71% 0.00in /  0mm
10:10 51.1 °F /  10.6 °C 41.7 °F /  5.4 °C 30.11in /  1019.5hPa NNW 3.0mph /  4.8km/h 4.0mph /  6.4km/h 70% 0.00in /  0mm
10:15 51.2 °F /  10.7 °C 42.1 °F /  5.6 °C 30.11in /  1019.5hPa NNW 2.0mph /  3.2km/h 4.0mph /  6.4km/h 71% 0.00in /  0mm
10:20 51.2 °F /  10.7 °C 42.1 °F /  5.6 °C 30.11in /  1019.5hPa NNW 1.0mph /  1.6km/h 3.0mph /  4.8km/h 71% 0.00in /  0mm
10:25 51.0 °F /  10.6 °C 41.6 °F /  5.3 °C 30.11in /  1019.5hPa NNW 2.0mph /  3.2km/h 4.0mph /  6.4km/h 70% 0.00in /  0mm
10:30 51.0 °F /  10.6 °C 41.6 °F /  5.3 °C 30.11in /  1019.5hPa NNW 2.0mph /  3.2km/h 4.0mph /  6.4km/h 70% 0.00in /  0mm
10:35 51.1 °F /  10.6 °C 42.0 °F /  5.6 °C 30.11in /  1019.5hPa NNW 1.0mph /  1.6km/h 4.0mph /  6.4km/h 71% 0.00in /  0mm
10:40 51.1 °F /  10.6 °C 41.3 °F /  5.2 °C 30.10in /  1019.2hPa NNW 4.0mph /  6.4km/h 5.0mph /  8km/h 69% 0.00in /  0mm
10:45 51.0 °F /  10.6 °C 41.2 °F /  5.1 °C 30.10in /  1019.2hPa NW 2.0mph /  3.2km/h 5.0mph /  8km/h 69% 0.00in /  0mm
10:50 51.3 °F /  10.7 °C 41.8 °F /  5.4 °C 30.11in /  1019.5hPa West 1.0mph /  1.6km/h 4.0mph /  6.4km/h 70% 0.00in /  0mm
10:55 51.2 °F /  10.7 °C 41.0 °F /  5 °C 30.11in /  1019.5hPa WNW 1.0mph /  1.6km/h 4.0mph /  6.4km/h 68% 0.00in /  0mm
11:00 51.2 °F /  10.7 °C 41.0 °F /  5 °C 30.11in /  1019.5hPa NNW 4.0mph /  6.4km/h 4.0mph /  6.4km/h 68% 0.00in /  0mm
11:05 51.5 °F /  10.8 °C 41.3 °F /  5.2 °C 30.11in /  1019.5hPa NW 3.0mph /  4.8km/h 7.0mph /  11.3km/h 68% 0.00in /  0mm
11:10 51.8 °F /  11 °C 40.8 °F /  4.9 °C 30.11in /  1019.5hPa NW 1.0mph /  1.6km/h 6.0mph /  9.7km/h 66% 0.00in /  0mm
11:15 51.9 °F /  11.1 °C 40.5 °F /  4.7 °C 30.11in /  1019.5hPa North 2.0mph /  3.2km/h 7.0mph /  11.3km/h 65% 0.00in /  0mm
11:20 51.9 °F /  11.1 °C 40.9 °F /  4.9 °C 30.11in /  1019.5hPa NW 5.0mph /  8km/h 6.0mph /  9.7km/h 66% 0.00in /  0mm
11:25 51.9 °F /  11.1 °C 40.9 °F /  4.9 °C 30.11in /  1019.5hPa North 2.0mph /  3.2km/h 6.0mph /  9.7km/h 66% 0.00in /  0mm
11:30 51.9 °F /  11.1 °C 40.5 °F /  4.7 °C 30.11in /  1019.5hPa NNW 3.0mph /  4.8km/h 6.0mph /  9.7km/h 65% 0.00in /  0mm
11:35 51.9 °F /  11.1 °C 40.5 °F /  4.7 °C 30.11in /  1019.5hPa NNW 2.0mph /  3.2km/h 5.0mph /  8km/h 65% 0.00in /  0mm
11:40 51.9 °F /  11.1 °C 40.9 °F /  4.9 °C 30.10in /  1019.2hPa NW 1.0mph /  1.6km/h 4.0mph /  6.4km/h 66% 0.00in /  0mm
11:45 52.9 °F /  11.6 °C 41.8 °F /  5.4 °C 30.10in /  1019.2hPa NW 1.0mph /  1.6km/h 4.0mph /  6.4km/h 66% 0.00in /  0mm
11:50 53.2 °F /  11.8 °C 41.3 °F /  5.2 °C 30.10in /  1019.2hPa NNW 4.0mph /  6.4km/h 6.0mph /  9.7km/h 64% 0.00in /  0mm
11:55 53.0 °F /  11.7 °C 41.9 °F /  5.5 °C 30.10in /  1019.2hPa NE 3.0mph /  4.8km/h 5.0mph /  8km/h 66% 0.00in /  0mm
12:00 53.3 °F /  11.8 °C 41.4 °F /  5.2 °C 30.09in /  1018.8hPa NNE 2.0mph /  3.2km/h 7.0mph /  11.3km/h 64% 0.00in /  0mm
12:05 53.7 °F /  12.1 °C 41.8 °F /  5.4 °C 30.09in /  1018.8hPa North 3.0mph /  4.8km/h 7.0mph /  11.3km/h 64% 0.00in /  0mm
12:10 54.1 °F /  12.3 °C 41.4 °F /  5.2 °C 30.09in /  1018.8hPa North 3.0mph /  4.8km/h 7.0mph /  11.3km/h 62% 0.00in /  0mm
12:15 54.0 °F /  12.2 °C 42.1 °F /  5.6 °C 30.09in /  1018.8hPa North 3.0mph /  4.8km/h 6.0mph /  9.7km/h 64% 0.00in /  0mm
12:20 54.1 °F /  12.3 °C 42.2 °F /  5.7 °C 30.09in /  1018.8hPa NNE 2.0mph /  3.2km/h 6.0mph /  9.7km/h 64% 0.00in /  0mm
12:25 54.1 °F /  12.3 °C 42.2 °F /  5.7 °C 30.10in /  1019.2hPa North 3.0mph /  4.8km/h 6.0mph /  9.7km/h 64% 0.00in /  0mm
12:30 54.0 °F /  12.2 °C 42.5 °F /  5.8 °C 30.10in /  1019.2hPa North 1.0mph /  1.6km/h 4.0mph /  6.4km/h 65% 0.00in /  0mm
12:35 54.7 °F /  12.6 °C 42.8 °F /  6 °C 30.12in /  1019.9hPa NW 2.0mph /  3.2km/h 6.0mph /  9.7km/h 64% 0.00in /  0mm
12:40 54.7 °F /  12.6 °C 42.3 °F /  5.7 °C 30.13in /  1020.2hPa WNW 3.0mph /  4.8km/h 6.0mph /  9.7km/h 63% 0.00in /  0mm
12:45 54.2 °F /  12.3 °C 41.9 °F /  5.5 °C 30.13in /  1020.2hPa WNW 3.0mph /  4.8km/h 6.0mph /  9.7km/h 63% 0.00in /  0mm
12:50 54.0 °F /  12.2 °C 41.7 °F /  5.4 °C 30.14in /  1020.5hPa WNW 2.0mph /  3.2km/h 8.0mph /  12.9km/h 63% 0.00in /  0mm
12:55 53.9 °F /  12.2 °C 41.2 °F /  5.1 °C 30.14in /  1020.5hPa WNW 3.0mph /  4.8km/h 7.0mph /  11.3km/h 62% 0.00in /  0mm
13:00 53.9 °F /  12.2 °C 41.2 °F /  5.1 °C 30.14in /  1020.5hPa West 4.0mph /  6.4km/h 8.0mph /  12.9km/h 62% 0.00in /  0mm
13:05 53.6 °F /  12 °C 40.0 °F /  4.4 °C 30.15in /  1020.9hPa WNW 4.0mph /  6.4km/h 10.0mph /  16.1km/h 60% 0.00in /  0mm
13:10 53.3 °F /  11.8 °C 40.6 °F /  4.8 °C 30.15in /  1020.9hPa WNW 5.0mph /  8km/h 10.0mph /  16.1km/h 62% 0.00in /  0mm
13:15 52.9 °F /  11.6 °C 40.2 °F /  4.6 °C 30.15in /  1020.9hPa WNW 4.0mph /  6.4km/h 9.0mph /  14.5km/h 62% 0.00in /  0mm
13:20 52.8 °F /  11.6 °C 39.7 °F /  4.3 °C 30.15in /  1020.9hPa WNW 4.0mph /  6.4km/h 9.0mph /  14.5km/h 61% 0.00in /  0mm
13:25 53.0 °F /  11.7 °C 39.5 °F /  4.2 °C 30.15in /  1020.9hPa WNW 3.0mph /  4.8km/h 6.0mph /  9.7km/h 60% 0.00in /  0mm
13:30 53.3 °F /  11.8 °C 40.2 °F /  4.6 °C 30.15in /  1020.9hPa NW 3.0mph /  4.8km/h 6.0mph /  9.7km/h 61% 0.00in /  0mm
13:35 53.1 °F /  11.7 °C 39.6 °F /  4.2 °C 30.15in /  1020.9hPa NW 3.0mph /  4.8km/h 9.0mph /  14.5km/h 60% 0.00in /  0mm
13:40 52.9 °F /  11.6 °C 40.2 °F /  4.6 °C 30.15in /  1020.9hPa Calm   8.0mph /  12.9km/h 62% 0.00in /  0mm
13:45 53.2 °F /  11.8 °C 40.1 °F /  4.5 °C 30.15in /  1020.9hPa West 4.0mph /  6.4km/h 8.0mph /  12.9km/h 61% 0.00in /  0mm
13:50 53.2 °F /  11.8 °C 39.7 °F /  4.3 °C 30.15in /  1020.9hPa West 3.0mph /  4.8km/h 7.0mph /  11.3km/h 60% 0.00in /  0mm
13:55 53.6 °F /  12 °C 40.0 °F /  4.4 °C 30.15in /  1020.9hPa NW 2.0mph /  3.2km/h 6.0mph /  9.7km/h 60% 0.00in /  0mm
14:00 53.3 °F /  11.8 °C 39.3 °F /  4.1 °C 30.15in /  1020.9hPa NW 4.0mph /  6.4km/h 8.0mph /  12.9km/h 59% 0.00in /  0mm
14:05 53.2 °F /  11.8 °C 39.2 °F /  4 °C 30.16in /  1021.2hPa WNW 3.0mph /  4.8km/h 8.0mph /  12.9km/h 59% 0.00in /  0mm
14:10 53.4 °F /  11.9 °C 39.9 °F /  4.4 °C 30.17in /  1021.6hPa West 3.0mph /  4.8km/h 6.0mph /  9.7km/h 60% 0.00in /  0mm
14:15 53.1 °F /  11.7 °C 39.1 °F /  3.9 °C 30.18in /  1021.9hPa West 3.0mph /  4.8km/h 6.0mph /  9.7km/h 59% 0.00in /  0mm
14:20 53.1 °F /  11.7 °C 39.6 °F /  4.2 °C 30.17in /  1021.6hPa WSW 4.0mph /  6.4km/h 7.0mph /  11.3km/h 60% 0.00in /  0mm
14:25 52.8 °F /  11.6 °C 38.9 °F /  3.8 °C 30.17in /  1021.6hPa West 3.0mph /  4.8km/h 6.0mph /  9.7km/h 59% 0.00in /  0mm
14:30 53.0 °F /  11.7 °C 39.9 °F /  4.4 °C 30.17in /  1021.6hPa West 1.0mph /  1.6km/h 4.0mph /  6.4km/h 61% 0.00in /  0mm
14:35 53.1 °F /  11.7 °C 39.6 °F /  4.2 °C 30.17in /  1021.6hPa West 2.0mph /  3.2km/h 6.0mph /  9.7km/h 60% 0.00in /  0mm
14:40 52.9 °F /  11.6 °C 39.0 °F /  3.9 °C 30.17in /  1021.6hPa West 3.0mph /  4.8km/h 6.0mph /  9.7km/h 59% 0.00in /  0mm
14:45 52.8 °F /  11.6 °C 39.7 °F /  4.3 °C 30.17in /  1021.6hPa West 3.0mph /  4.8km/h 6.0mph /  9.7km/h 61% 0.00in /  0mm
14:50 52.6 °F /  11.4 °C 39.5 °F /  4.2 °C 30.17in /  1021.6hPa WNW 1.0mph /  1.6km/h 7.0mph /  11.3km/h 61% 0.00in /  0mm
14:55 52.6 °F /  11.4 °C 39.1 °F /  3.9 °C 30.16in /  1021.2hPa WNW 1.0mph /  1.6km/h 4.0mph /  6.4km/h 60% 0.00in /  0mm
15:00 52.8 °F /  11.6 °C 39.7 °F /  4.3 °C 30.17in /  1021.6hPa WNW 2.0mph /  3.2km/h 5.0mph /  8km/h 61% 0.00in /  0mm
15:05 52.8 °F /  11.6 °C 39.7 °F /  4.3 °C 30.17in /  1021.6hPa WNW 2.0mph /  3.2km/h 5.0mph /  8km/h 61% 0.00in /  0mm
15:10 52.8 °F /  11.6 °C 39.3 °F /  4.1 °C 30.17in /  1021.6hPa WNW 2.0mph /  3.2km/h 4.0mph /  6.4km/h 60% 0.00in /  0mm
15:15 52.8 °F /  11.6 °C 39.7 °F /  4.3 °C 30.17in /  1021.6hPa WNW 3.0mph /  4.8km/h 5.0mph /  8km/h 61% 0.00in /  0mm
15:20 52.9 °F /  11.6 °C 39.8 °F /  4.3 °C 30.17in /  1021.6hPa Calm   3.0mph /  4.8km/h 61% 0.00in /  0mm
15:25 53.0 °F /  11.7 °C 39.5 °F /  4.2 °C 30.17in /  1021.6hPa WNW 1.0mph /  1.6km/h 4.0mph /  6.4km/h 60% 0.00in /  0mm
15:30 52.8 °F /  11.6 °C 39.3 °F /  4.1 °C 30.17in /  1021.6hPa WNW 1.0mph /  1.6km/h 3.0mph /  4.8km/h 60% 0.00in /  0mm
15:35 52.9 °F /  11.6 °C 40.2 °F /  4.6 °C 30.17in /  1021.6hPa WNW 1.0mph /  1.6km/h 4.0mph /  6.4km/h 62% 0.00in /  0mm
15:40 52.9 °F /  11.6 °C 39.8 °F /  4.3 °C 30.17in /  1021.6hPa WNW 2.0mph /  3.2km/h 4.0mph /  6.4km/h 61% 0.00in /  0mm
15:45 52.8 °F /  11.6 °C 38.9 °F /  3.8 °C 30.17in /  1021.6hPa WNW 2.0mph /  3.2km/h 3.0mph /  4.8km/h 59% 0.00in /  0mm
15:50 52.9 °F /  11.6 °C 39.8 °F /  4.3 °C 30.18in /  1021.9hPa WNW 2.0mph /  3.2km/h 3.0mph /  4.8km/h 61% 0.00in /  0mm
15:55 52.9 °F /  11.6 °C 39.4 °F /  4.1 °C 30.17in /  1021.6hPa WNW 1.0mph /  1.6km/h 3.0mph /  4.8km/h 60% 0.00in /  0mm
16:00 53.0 °F /  11.7 °C 40.3 °F /  4.6 °C 30.17in /  1021.6hPa WNW 1.0mph /  1.6km/h 3.0mph /  4.8km/h 62% 0.00in /  0mm
16:05 53.3 °F /  11.8 °C 41.0 °F /  5 °C 30.17in /  1021.6hPa West 1.0mph /  1.6km/h 3.0mph /  4.8km/h 63% 0.00in /  0mm
16:10 53.5 °F /  11.9 °C 41.2 °F /  5.1 °C 30.17in /  1021.6hPa SW 1.0mph /  1.6km/h 4.0mph /  6.4km/h 63% 0.00in /  0mm
16:15 53.2 °F /  11.8 °C 41.3 °F /  5.2 °C 30.17in /  1021.6hPa SSW 4.0mph /  6.4km/h 5.0mph /  8km/h 64% 0.00in /  0mm
16:20 53.0 °F /  11.7 °C 40.7 °F /  4.8 °C 30.16in /  1021.2hPa SSW 2.0mph /  3.2km/h 5.0mph /  8km/h 63% 0.00in /  0mm
16:25 53.2 °F /  11.8 °C 41.7 °F /  5.4 °C 30.16in /  1021.2hPa Calm   5.0mph /  8km/h 65% 0.00in /  0mm
16:30 53.4 °F /  11.9 °C 41.9 °F /  5.5 °C 30.16in /  1021.2hPa WSW 1.0mph /  1.6km/h 4.0mph /  6.4km/h 65% 0.00in /  0mm
16:35 53.2 °F /  11.8 °C 41.3 °F /  5.2 °C 30.16in /  1021.2hPa WSW 2.0mph /  3.2km/h 4.0mph /  6.4km/h 64% 0.00in /  0mm
16:40 53.1 °F /  11.7 °C 41.6 °F /  5.3 °C 30.16in /  1021.2hPa WSW 2.0mph /  3.2km/h 5.0mph /  8km/h 65% 0.00in /  0mm
16:45 53.6 °F /  12 °C 42.5 °F /  5.8 °C 30.16in /  1021.2hPa WSW 2.0mph /  3.2km/h 5.0mph /  8km/h 66% 0.00in /  0mm
16:50 53.5 °F /  11.9 °C 41.6 °F /  5.3 °C 30.16in /  1021.2hPa SSW 2.0mph /  3.2km/h 5.0mph /  8km/h 64% 0.00in /  0mm
16:55 53.8 °F /  12.1 °C 42.7 °F /  5.9 °C 30.16in /  1021.2hPa South 3.0mph /  4.8km/h 4.0mph /  6.4km/h 66% 0.00in /  0mm
17:00 53.6 °F /  12 °C 41.7 °F /  5.4 °C 30.16in /  1021.2hPa SSW 1.0mph /  1.6km/h 4.0mph /  6.4km/h 64% 0.00in /  0mm
17:05 53.9 °F /  12.2 °C 42.0 °F /  5.6 °C 30.16in /  1021.2hPa SSW 2.0mph /  3.2km/h 4.0mph /  6.4km/h 64% 0.00in /  0mm
17:10 53.9 °F /  12.2 °C 42.4 °F /  5.8 °C 30.16in /  1021.2hPa SW 2.0mph /  3.2km/h 4.0mph /  6.4km/h 65% 0.00in /  0mm
17:15 53.8 °F /  12.1 °C 41.9 °F /  5.5 °C 30.16in /  1021.2hPa SW 2.0mph /  3.2km/h 4.0mph /  6.4km/h 64% 0.00in /  0mm
17:20 54.0 °F /  12.2 °C 42.5 °F /  5.8 °C 30.16in /  1021.2hPa SW 2.0mph /  3.2km/h 5.0mph /  8km/h 65% 0.00in /  0mm
17:25 54.0 °F /  12.2 °C 42.1 °F /  5.6 °C 30.16in /  1021.2hPa SW 3.0mph /  4.8km/h 5.0mph /  8km/h 64% 0.00in /  0mm
17:30 54.0 °F /  12.2 °C 42.1 °F /  5.6 °C 30.16in /  1021.2hPa WSW 2.0mph /  3.2km/h 5.0mph /  8km/h 64% 0.00in /  0mm
17:35 54.1 °F /  12.3 °C 42.6 °F /  5.9 °C 30.16in /  1021.2hPa SW 4.0mph /  6.4km/h 5.0mph /  8km/h 65% 0.00in /  0mm
17:40 53.8 °F /  12.1 °C 41.9 °F /  5.5 °C 30.16in /  1021.2hPa SSW 4.0mph /  6.4km/h 6.0mph /  9.7km/h 64% 0.00in /  0mm
17:45 53.6 °F /  12 °C 41.3 °F /  5.2 °C 30.16in /  1021.2hPa SW 3.0mph /  4.8km/h 5.0mph /  8km/h 63% 0.00in /  0mm
17:50 53.7 °F /  12.1 °C 42.2 °F /  5.7 °C 30.16in /  1021.2hPa SW 3.0mph /  4.8km/h 5.0mph /  8km/h 65% 0.00in /  0mm
17:55 53.7 °F /  12.1 °C 41.4 °F /  5.2 °C 30.16in /  1021.2hPa Calm   5.0mph /  8km/h 63% 0.00in /  0mm
18:00 54.1 °F /  12.3 °C 42.6 °F /  5.9 °C 30.16in /  1021.2hPa SW 2.0mph /  3.2km/h 5.0mph /  8km/h 65% 0.00in /  0mm
18:05 54.0 °F /  12.2 °C 42.5 °F /  5.8 °C 30.16in /  1021.2hPa WSW 1.0mph /  1.6km/h 4.0mph /  6.4km/h 65% 0.00in /  0mm
18:10 54.0 °F /  12.2 °C 42.1 °F /  5.6 °C 30.17in /  1021.6hPa WSW 2.0mph /  3.2km/h 4.0mph /  6.4km/h 64% 0.00in /  0mm
18:15 53.8 °F /  12.1 °C 42.3 °F /  5.7 °C 30.17in /  1021.6hPa WSW 2.0mph /  3.2km/h 4.0mph /  6.4km/h 65% 0.00in /  0mm
18:20 53.7 °F /  12.1 °C 42.2 °F /  5.7 °C 30.17in /  1021.6hPa WSW 2.0mph /  3.2km/h 4.0mph /  6.4km/h 65% 0.00in /  0mm
18:25 53.5 °F /  11.9 °C 42.0 °F /  5.6 °C 30.18in /  1021.9hPa SW 1.0mph /  1.6km/h 5.0mph /  8km/h 65% 0.00in /  0mm
18:30 53.5 °F /  11.9 °C 42.4 °F /  5.8 °C 30.18in /  1021.9hPa WSW 3.0mph /  4.8km/h 5.0mph /  8km/h 66% 0.00in /  0mm
18:35 53.4 °F /  11.9 °C 42.3 °F /  5.7 °C 30.18in /  1021.9hPa WSW 1.0mph /  1.6km/h 4.0mph /  6.4km/h 66% 0.00in /  0mm
18:40 53.4 °F /  11.9 °C 42.3 °F /  5.7 °C 30.17in /  1021.6hPa West 2.0mph /  3.2km/h 3.0mph /  4.8km/h 66% 0.00in /  0mm
18:45 53.2 °F /  11.8 °C 42.1 °F /  5.6 °C 30.17in /  1021.6hPa Calm   3.0mph /  4.8km/h 66% 0.00in /  0mm
18:50 53.2 °F /  11.8 °C 42.1 °F /  5.6 °C 30.17in /  1021.6hPa Calm   1.0mph /  1.6km/h 66% 0.00in /  0mm
18:55 53.3 °F /  11.8 °C 42.2 °F /  5.7 °C 30.17in /  1021.6hPa Calm     66% 0.00in /  0mm
19:00 53.2 °F /  11.8 °C 42.1 °F /  5.6 °C 30.18in /  1021.9hPa Calm     66% 0.00in /  0mm
19:05 53.1 °F /  11.7 °C 42.0 °F /  5.6 °C 30.18in /  1021.9hPa West 2.0mph /  3.2km/h 3.0mph /  4.8km/h 66% 0.00in /  0mm
19:10 53.1 °F /  11.7 °C 42.4 °F /  5.8 °C 30.19in /  1022.2hPa WSW 2.0mph /  3.2km/h 5.0mph /  8km/h 67% 0.00in /  0mm
19:15 53.0 °F /  11.7 °C 42.3 °F /  5.7 °C 30.19in /  1022.2hPa SW 3.0mph /  4.8km/h 6.0mph /  9.7km/h 67% 0.00in /  0mm
19:20 52.9 °F /  11.6 °C 42.2 °F /  5.7 °C 30.20in /  1022.6hPa SSW 4.0mph /  6.4km/h 7.0mph /  11.3km/h 67% 0.00in /  0mm
19:25 52.6 °F /  11.4 °C 41.9 °F /  5.5 °C 30.20in /  1022.6hPa WSW 1.0mph /  1.6km/h 6.0mph /  9.7km/h 67% 0.00in /  0mm
19:30 52.6 °F /  11.4 °C 41.9 °F /  5.5 °C 30.20in /  1022.6hPa WSW 2.0mph /  3.2km/h 6.0mph /  9.7km/h 67% 0.00in /  0mm
19:35 52.4 °F /  11.3 °C 41.8 °F /  5.4 °C 30.20in /  1022.6hPa SW 2.0mph /  3.2km/h 6.0mph /  9.7km/h 67% 0.00in /  0mm
19:40 52.2 °F /  11.2 °C 41.6 °F /  5.3 °C 30.20in /  1022.6hPa SW 3.0mph /  4.8km/h 6.0mph /  9.7km/h 67% 0.00in /  0mm
19:45 52.1 °F /  11.2 °C 41.5 °F /  5.3 °C 30.20in /  1022.6hPa SW 3.0mph /  4.8km/h 5.0mph /  8km/h 67% 0.00in /  0mm
19:50 52.0 °F /  11.1 °C 41.4 °F /  5.2 °C 30.20in /  1022.6hPa Calm   7.0mph /  11.3km/h 67% 0.00in /  0mm
19:55 52.0 °F /  11.1 °C 41.8 °F /  5.4 °C 30.21in /  1022.9hPa WSW 2.0mph /  3.2km/h 6.0mph /  9.7km/h 68% 0.00in /  0mm
20:00 51.8 °F /  11 °C 41.6 °F /  5.3 °C 30.20in /  1022.6hPa SW 2.0mph /  3.2km/h 6.0mph /  9.7km/h 68% 0.00in /  0mm
20:05 51.6 °F /  10.9 °C 41.4 °F /  5.2 °C 30.20in /  1022.6hPa SW 2.0mph /  3.2km/h 5.0mph /  8km/h 68% 0.00in /  0mm
20:10 51.5 °F /  10.8 °C 41.7 °F /  5.4 °C 30.20in /  1022.6hPa WSW 2.0mph /  3.2km/h 5.0mph /  8km/h 69% 0.00in /  0mm
20:15 51.4 °F /  10.8 °C 41.6 °F /  5.3 °C 30.20in /  1022.6hPa West 2.0mph /  3.2km/h 4.0mph /  6.4km/h 69% 0.00in /  0mm
20:20 51.2 °F /  10.7 °C 41.7 °F /  5.4 °C 30.19in /  1022.2hPa WSW 1.0mph /  1.6km/h 3.0mph /  4.8km/h 70% 0.00in /  0mm
20:25 50.8 °F /  10.4 °C 41.4 °F /  5.2 °C 30.19in /  1022.2hPa Calm   1.0mph /  1.6km/h 70% 0.00in /  0mm
20:30 50.7 °F /  10.4 °C 41.6 °F /  5.3 °C 30.19in /  1022.2hPa WSW 1.0mph /  1.6km/h 3.0mph /  4.8km/h 71% 0.00in /  0mm
20:35 50.5 °F /  10.3 °C 41.4 °F /  5.2 °C 30.20in /  1022.6hPa WSW 1.0mph /  1.6km/h 3.0mph /  4.8km/h 71% 0.00in /  0mm
20:40 50.4 °F /  10.2 °C 41.3 °F /  5.2 °C 30.21in /  1022.9hPa WSW 1.0mph /  1.6km/h 3.0mph /  4.8km/h 71% 0.00in /  0mm
20:45 50.3 °F /  10.2 °C 41.6 °F /  5.3 °C 30.21in /  1022.9hPa WSW 1.0mph /  1.6km/h 4.0mph /  6.4km/h 72% 0.00in /  0mm
20:50 50.1 °F /  10.1 °C 41.4 °F /  5.2 °C 30.23in /  1023.6hPa West 1.0mph /  1.6km/h 5.0mph /  8km/h 72% 0.00in /  0mm
20:55 50.1 °F /  10.1 °C 41.4 °F /  5.2 °C 30.23in /  1023.6hPa SW 5.0mph /  8km/h 5.0mph /  8km/h 72% 0.00in /  0mm
21:00 49.9 °F /  9.9 °C 41.6 °F /  5.3 °C 30.23in /  1023.6hPa WSW 2.0mph /  3.2km/h 6.0mph /  9.7km/h 73% 0.00in /  0mm
21:05 49.6 °F /  9.8 °C 41.3 °F /  5.2 °C 30.23in /  1023.6hPa West 2.0mph /  3.2km/h 6.0mph /  9.7km/h 73% 0.00in /  0mm
21:10 49.4 °F /  9.7 °C 41.5 °F /  5.3 °C 30.23in /  1023.6hPa West 1.0mph /  1.6km/h 2.0mph /  3.2km/h 74% 0.00in /  0mm
21:15 49.1 °F /  9.5 °C 41.5 °F /  5.3 °C 30.24in /  1023.9hPa West 1.0mph /  1.6km/h 2.0mph /  3.2km/h 75% 0.00in /  0mm
21:20 48.8 °F /  9.3 °C 41.2 °F /  5.1 °C 30.24in /  1023.9hPa Calm   3.0mph /  4.8km/h 75% 0.00in /  0mm
21:25 48.8 °F /  9.3 °C 41.2 °F /  5.1 °C 30.24in /  1023.9hPa Calm   3.0mph /  4.8km/h 75% 0.00in /  0mm
21:30 48.6 °F /  9.2 °C 41.0 °F /  5 °C 30.24in /  1023.9hPa Calm   3.0mph /  4.8km/h 75% 0.00in /  0mm
21:35 48.7 °F /  9.3 °C 41.1 °F /  5.1 °C 30.24in /  1023.9hPa Calm   3.0mph /  4.8km/h 75% 0.00in /  0mm
21:40 48.3 °F /  9.1 °C 41.1 °F /  5.1 °C 30.24in /  1023.9hPa Calm   2.0mph /  3.2km/h 76% 0.00in /  0mm
21:45 48.0 °F /  8.9 °C 41.1 °F /  5.1 °C 30.24in /  1023.9hPa Calm   2.0mph /  3.2km/h 77% 0.00in /  0mm
21:50 47.9 °F /  8.8 °C 41.0 °F /  5 °C 30.25in /  1024.3hPa Calm     77% 0.00in /  0mm
21:55 47.9 °F /  8.8 °C 41.0 °F /  5 °C 30.25in /  1024.3hPa Calm     77% 0.00in /  0mm
22:00 47.7 °F /  8.7 °C 40.8 °F /  4.9 °C 30.25in /  1024.3hPa Calm     77% 0.00in /  0mm
22:05 47.4 °F /  8.6 °C 40.9 °F /  4.9 °C 30.25in /  1024.3hPa Calm     78% 0.00in /  0mm
22:10 46.9 °F /  8.3 °C 40.7 °F /  4.8 °C 30.25in /  1024.3hPa Calm     79% 0.00in /  0mm
22:15 46.5 °F /  8.1 °C 40.7 °F /  4.8 °C 30.25in /  1024.3hPa Calm     80% 0.00in /  0mm
22:20 46.4 °F /  8 °C 40.6 °F /  4.8 °C 30.25in /  1024.3hPa West 1.0mph /  1.6km/h 3.0mph /  4.8km/h 80% 0.00in /  0mm
22:25 46.7 °F /  8.2 °C 39.5 °F /  4.2 °C 30.26in /  1024.6hPa North 2.0mph /  3.2km/h 5.0mph /  8km/h 76% 0.00in /  0mm
22:30 46.8 °F /  8.2 °C 37.2 °F /  2.9 °C 30.26in /  1024.6hPa North 1.0mph /  1.6km/h 7.0mph /  11.3km/h 69% 0.00in /  0mm
22:35 46.8 °F /  8.2 °C 36.0 °F /  2.2 °C 30.26in /  1024.6hPa NNW 2.0mph /  3.2km/h 6.0mph /  9.7km/h 66% 0.00in /  0mm
22:40 46.7 °F /  8.2 °C 34.8 °F /  1.6 °C 30.26in /  1024.6hPa NNW 5.0mph /  8km/h 6.0mph /  9.7km/h 63% 0.00in /  0mm
22:45 46.5 °F /  8.1 °C 34.6 °F /  1.4 °C 30.26in /  1024.6hPa NNW 3.0mph /  4.8km/h 6.0mph /  9.7km/h 63% 0.00in /  0mm
22:50 46.2 °F /  7.9 °C 34.3 °F /  1.3 °C 30.26in /  1024.6hPa NNW 2.0mph /  3.2km/h 6.0mph /  9.7km/h 63% 0.00in /  0mm
22:55 46.0 °F /  7.8 °C 33.7 °F /  0.9 °C 30.26in /  1024.6hPa NNW 2.0mph /  3.2km/h 5.0mph /  8km/h 62% 0.00in /  0mm
23:00 46.0 °F /  7.8 °C 33.7 °F /  0.9 °C 30.26in /  1024.6hPa North 2.0mph /  3.2km/h 6.0mph /  9.7km/h 62% 0.00in /  0mm
23:05 45.8 °F /  7.7 °C 33.5 °F /  0.8 °C 30.26in /  1024.6hPa NNW 1.0mph /  1.6km/h 3.0mph /  4.8km/h 62% 0.00in /  0mm
23:10 45.6 °F /  7.6 °C 33.7 °F /  0.9 °C 30.25in /  1024.3hPa Calm   3.0mph /  4.8km/h 63% 0.00in /  0mm
23:15 45.3 °F /  7.4 °C 33.4 °F /  0.8 °C 30.25in /  1024.3hPa NNW 1.0mph /  1.6km/h 3.0mph /  4.8km/h 63% 0.00in /  0mm
23:20 45.2 °F /  7.3 °C 33.3 °F /  0.7 °C 30.24in /  1023.9hPa Calm     63% 0.00in /  0mm
23:25 45.2 °F /  7.3 °C 33.3 °F /  0.7 °C 30.24in /  1023.9hPa NE 3.0mph /  4.8km/h 4.0mph /  6.4km/h 63% 0.00in /  0mm
23:30 45.2 °F /  7.3 °C 33.3 °F /  0.7 °C 30.25in /  1024.3hPa NE 1.0mph /  1.6km/h 3.0mph /  4.8km/h 63% 0.00in /  0mm
23:35 45.1 °F /  7.3 °C 33.2 °F /  0.7 °C 30.26in /  1024.6hPa Calm   2.0mph /  3.2km/h 63% 0.00in /  0mm
23:40 44.6 °F /  7 °C 33.6 °F /  0.9 °C 30.26in /  1024.6hPa NE 2.0mph /  3.2km/h 2.0mph /  3.2km/h 65% 0.00in /  0mm
23:45 44.6 °F /  7 °C 33.6 °F /  0.9 °C 30.25in /  1024.3hPa NE 1.0mph /  1.6km/h 5.0mph /  8km/h 65% 0.00in /  0mm
23:50 44.6 °F /  7 °C 33.6 °F /  0.9 °C 30.25in /  1024.3hPa NNE 2.0mph /  3.2km/h 5.0mph /  8km/h 65% 0.00in /  0mm
23:55 44.5 °F /  6.9 °C 33.5 °F /  0.8 °C 30.25in /  1024.3hPa North 1.0mph /  1.6km/h 4.0mph /  6.4km/h 65% 0.00in /  0mm
Buffalo, New York, USA
Compliments of Weather Underground - 2.5 mb